首页
METAR-TAF:

METAR-TAF

机场 :

Culdrose, 英格兰

纬度: 50-05N, 经度: 005-15W, 海拔: 78米

当前天气观测

该预报发布于57分钟前的17:50 UTC
风速12节,风向西
温度 6°C
湿度 81%
气压 1019 hPa
能見度: 9000

METAR: EGDR 171750Z AUTO 28012KT 9000 // FEW017/// SCT050/// 06/03 Q1019

时间: 18:47 (18:47 UTC)

预报

该预报发布于11小时和16分钟前的07:31 UTC
预报有效从17日的 09点(UTC)到 17日的 18点(UTC)
风速15节,风向西
能见度10公里或以上
少量云层高于2000英尺
短暂存在
从 17日的 09点(UTC)到 17日的 18点(UTC)
风速15节,风向西,有时为30节阵风
能見度: 4000
散云层高于800英尺
散云层高于1600英尺, 积雨云.
阵雨
几率 30% :
短暂存在
从 17日的 09点(UTC)到 17日的 18点(UTC)
风速20节,风向西,有时为40节阵风
能見度: 3000
散云层高于600英尺
多云层高于1500英尺, 积雨云.
雷暴, 小冰雹或雪球, 大阵雨

TAF: EGDR 170731Z 1709/1718 27015KT 9999 FEW020 TEMPO 1709/1718 27015G30KT 4000 SHRA SCT008 SCT016CB PROB30 TEMPO 1709/1718 27020G40KT 3000 TSGS +SHRA SCT006 BKN015CB

超过4000个机场的气象观测和天气预报(METAR&TAF报告)。

可查询的气象台以黄色和红色小点在地图上表示。

将鼠标移到小点上方,可查看气象台名称。

然后点击查看天气观测和预报。

如需切换地图:点击带黑十字的绿色按钮放大地图;点击带横线的绿色按钮缩小地图;或者点击绿色箭头查看邻近地区的地图。


METAR-TAF: